Time;durP1;ratioP1;P1;durP2;ratioP2;P2;SDS_P1;SDS_P2;PMS_P1;PMS_P2;Temp;Humidity;BMP_temperature;BMP_pressure;BME280_temperature;BME280_humidity;BME280_pressure;Samples;Min_cycle;Max_cycle;Signal;HPM_P1;HPM_P2
2021/04/12 00:01:45;;;;;;;1.33;1.30;;;;;;;11.27;71.10;95147.38;5009642;28;20030;-63
2021/04/12 00:04:30;;;;;;;1.25;1.15;;;;;;;11.56;70.32;95138.84;5008158;28;20053;-62
2021/04/12 00:07:47;;;;;;;1.42;1.25;;;;;;;11.79;68.60;95148.31;5009050;28;20042;-62
2021/04/12 00:10:36;;;;;;;1.42;1.33;;;;;;;11.81;68.34;95132.78;5015492;28;20053;-62
2021/04/12 00:13:05;;;;;;;1.30;1.20;;;;;;;12.03;67.95;95155.09;5024170;28;20042;-62
2021/04/12 00:15:49;;;;;;;2.22;1.30;;;;;;;12.03;67.23;95115.09;5009209;28;20104;-62
2021/04/12 00:18:22;;;;;;;1.13;1.00;;;;;;;11.95;67.41;95146.78;5008777;28;20495;-62
2021/04/12 00:20:55;;;;;;;1.40;1.30;;;;;;;11.94;67.48;95141.78;5008235;28;20507;-62
2021/04/12 00:23:26;;;;;;;1.50;1.38;;;;;;;11.42;69.37;95145.06;5008614;28;20512;-63
2021/04/12 00:26:13;;;;;;;1.10;1.10;;;;;;;11.03;71.63;95129.88;5026020;28;20455;-61
2021/04/12 00:28:53;;;;;;;1.40;1.30;;;;;;;10.91;71.03;95119.81;5008905;28;20045;-61
2021/04/12 00:31:26;;;;;;;1.30;1.20;;;;;;;11.37;69.54;95115.13;5008672;28;20057;-62
2021/04/12 00:34:02;;;;;;;1.60;1.30;;;;;;;11.51;69.00;95120.31;5008770;28;20049;-62
2021/04/12 00:36:48;;;;;;;1.30;1.30;;;;;;;11.68;68.73;95126.50;5008221;28;20038;-62
2021/04/12 00:39:18;;;;;;;1.35;1.00;;;;;;;11.27;69.38;95128.72;5008863;28;20050;-63
2021/04/12 00:42:11;;;;;;;1.10;1.10;;;;;;;11.11;71.13;95128.38;5008541;28;20401;-61
2021/04/12 00:44:42;;;;;;;1.80;1.70;;;;;;;11.10;70.33;95126.78;5008684;28;20104;-61
2021/04/12 00:47:32;;;;;;;1.67;1.55;;;;;;;11.23;70.44;95123.22;5022444;28;20483;-62
2021/04/12 00:50:13;;;;;;;1.48;1.38;;;;;;;10.93;71.34;95122.16;5010497;28;20497;-61
2021/04/12 00:53:22;;;;;;;1.52;1.42;;;;;;;10.65;72.91;95140.19;5008880;28;20064;-62
2021/04/12 00:56:02;;;;;;;1.50;1.40;;;;;;;11.10;71.58;95138.19;5003950;28;20565;-62
2021/04/12 00:58:42;;;;;;;1.10;1.10;;;;;;;11.07;71.31;95122.06;5008894;28;20474;-61
2021/04/12 01:01:10;;;;;;;1.40;1.30;;;;;;;11.22;70.82;95145.63;5008316;28;20048;-61
2021/04/12 01:04:10;;;;;;;1.45;1.35;;;;;;;11.13;69.87;95112.84;5008398;28;20053;-63
2021/04/12 01:07:13;;;;;;;1.40;1.38;;;;;;;11.35;69.70;95136.72;5008660;28;20061;-63
2021/04/12 01:10:03;;;;;;;1.70;1.20;;;;;;;11.02;71.31;95140.84;5023674;28;20049;-61
2021/04/12 01:12:53;;;;;;;1.20;1.17;;;;;;;10.91;70.74;95140.31;5008392;28;20116;-61
2021/04/12 01:15:40;;;;;;;1.17;1.17;;;;;;;11.25;70.58;95154.88;5008239;28;20065;-62
2021/04/12 01:18:30;;;;;;;1.20;1.20;;;;;;;10.57;72.35;95156.84;5008245;28;20553;-61
2021/04/12 01:21:02;;;;;;;1.10;1.10;;;;;;;10.81;70.98;95152.00;5006865;28;20093;-61
2021/04/12 01:23:48;;;;;;;1.13;1.02;;;;;;;10.82;70.78;95142.94;5008193;28;20125;-61
2021/04/12 01:26:28;;;;;;;1.30;1.20;;;;;;;10.56;71.94;95149.97;5008642;28;20092;-62
2021/04/12 01:29:21;;;;;;;1.10;1.10;;;;;;;10.80;70.78;95147.78;5009878;28;20034;-61
2021/04/12 01:32:23;;;;;;;1.20;1.10;;;;;;;10.73;71.07;95151.94;5008489;28;20038;-62
2021/04/12 01:35:26;;;;;;;1.08;1.08;;;;;;;10.67;71.59;95156.59;5008511;28;20559;-63
2021/04/12 01:38:19;;;;;;;1.13;1.02;;;;;;;10.43;72.06;95148.94;5023577;28;20403;-62
2021/04/12 01:41:09;;;;;;;0.90;0.90;;;;;;;10.72;71.26;95143.19;5023884;28;20041;-62
2021/04/12 01:44:05;;;;;;;1.30;1.20;;;;;;;10.97;70.97;95154.28;5008441;28;20184;-61
2021/04/12 01:46:41;;;;;;;1.60;1.50;;;;;;;10.71;71.09;95140.84;5008502;28;20052;-61
2021/04/12 01:49:13;;;;;;;1.80;1.40;;;;;;;10.89;70.52;95148.59;5026714;28;20104;-62
2021/04/12 01:51:56;;;;;;;1.35;1.25;;;;;;;11.17;69.44;95153.75;5011425;28;20042;-62
2021/04/12 01:54:25;;;;;;;1.40;1.30;;;;;;;10.98;70.77;95158.50;5026863;28;20057;-61
2021/04/12 01:57:38;;;;;;;1.20;1.20;;;;;;;10.75;71.29;95163.88;5011433;28;20035;-61
2021/04/12 02:00:36;;;;;;;1.45;1.35;;;;;;;11.20;69.80;95148.56;4969982;28;20057;-62
2021/04/12 02:03:26;;;;;;;1.98;1.50;;;;;;;11.20;68.85;95156.56;5011379;28;20038;-63
2021/04/12 02:05:54;;;;;;;1.73;1.20;;;;;;;11.02;68.82;95162.13;5011464;28;20049;-63
2021/04/12 02:08:28;;;;;;;1.20;1.20;;;;;;;10.73;71.42;95155.38;5011079;28;20041;-63
2021/04/12 02:11:30;;;;;;;1.30;1.20;;;;;;;10.71;70.82;95159.44;5013357;28;20576;-63
2021/04/12 02:14:37;;;;;;;1.45;1.10;;;;;;;10.57;71.50;95154.19;5012588;28;20045;-64
2021/04/12 02:17:33;;;;;;;1.33;1.30;;;;;;;10.96;69.29;95132.22;4973556;28;20608;-62
2021/04/12 02:20:05;;;;;;;1.10;1.10;;;;;;;10.67;69.54;95133.44;4991744;28;20123;-63
2021/04/12 02:22:59;;;;;;;1.92;1.30;;;;;;;11.08;69.58;95159.03;5013043;28;20607;-62
2021/04/12 02:25:43;;;;;;;1.33;1.23;;;;;;;10.82;69.42;95166.88;4992275;28;20038;-62
2021/04/12 02:28:28;;;;;;;1.40;1.30;;;;;;;10.61;70.30;95147.19;5025242;28;20101;-63
2021/04/12 02:31:21;;;;;;;1.48;1.38;;;;;;;11.24;68.83;95166.63;5010365;28;20042;-62
2021/04/12 02:33:51;;;;;;;;;;;;;;;10.46;71.55;95158.97;5011376;28;20038;-62
2021/04/12 02:36:40;;;;;;;1.17;1.17;;;;;;;10.47;71.10;95154.44;5011073;28;19961;-62
2021/04/12 02:39:24;;;;;;;1.52;1.42;;;;;;;10.22;71.84;95161.88;5009303;28;20069;-63
2021/04/12 02:41:55;;;;;;;2.00;1.80;;;;;;;10.68;69.93;95166.94;5010440;28;20049;-63
2021/04/12 02:44:58;;;;;;;1.52;1.42;;;;;;;11.03;69.47;95166.34;5010879;28;20034;-62
2021/04/12 02:47:57;;;;;;;1.73;1.63;;;;;;;10.72;70.35;95169.78;5010438;28;20041;-64
2021/04/12 02:50:41;;;;;;;1.65;1.55;;;;;;;11.00;68.85;95172.28;5010704;28;20030;-63
2021/04/12 02:53:22;;;;;;;1.88;1.77;;;;;;;10.02;72.61;95157.00;5010392;28;20030;-62
2021/04/12 02:56:06;;;;;;;2.78;2.58;;;;;;;9.94;72.96;95181.66;5012434;28;20054;-63
2021/04/12 02:58:52;;;;;;;3.15;2.95;;;;;;;9.80;73.99;95179.78;5010652;28;20100;-64
2021/04/12 03:01:30;;;;;;;2.60;2.50;;;;;;;9.54;75.02;95182.19;5025241;28;20049;-63
2021/04/12 03:03:55;;;;;;;3.10;2.83;;;;;;;9.33;76.26;95186.31;5010162;28;20065;-63
2021/04/12 03:06:57;;;;;;;3.33;3.13;;;;;;;9.68;74.99;95189.38;5010327;28;20515;-63
2021/04/12 03:10:00;;;;;;;4.30;4.00;;;;;;;9.63;75.81;95184.94;5010220;28;20050;-62
2021/04/12 03:12:45;;;;;;;4.35;4.05;;;;;;;10.03;74.30;95190.47;5025127;28;20046;-62
2021/04/12 03:15:38;;;;;;;5.28;4.97;;;;;;;10.03;74.56;95193.94;5008809;28;20038;-62
2021/04/12 03:18:32;;;;;;;6.47;5.97;;;;;;;9.51;76.08;95195.25;5009850;28;20088;-62
2021/04/12 03:21:28;;;;;;;5.63;5.22;;;;;;;9.30;77.46;95198.28;5009966;28;20117;-63
2021/04/12 03:24:06;;;;;;;6.90;6.40;;;;;;;9.56;76.67;95195.94;5010001;28;20042;-63
2021/04/12 03:26:40;;;;;;;7.35;6.85;;;;;;;9.46;77.22;95205.97;5009892;28;20046;-63
2021/04/12 03:29:28;;;;;;;7.03;6.53;;;;;;;9.49;77.48;95202.72;5009565;28;20487;-63
2021/04/12 03:32:46;;;;;;;8.90;8.18;;;;;;;9.46;76.70;95200.66;5011387;28;20026;-63
2021/04/12 03:35:20;;;;;;;7.97;7.03;;;;;;;8.89;76.68;95216.00;4928846;29;20502;-64
2021/04/12 03:38:18;;;;;;;8.10;7.40;;;;;;;9.10;74.71;95188.03;5008874;28;20042;-63
2021/04/12 03:41:05;;;;;;;8.07;7.43;;;;;;;8.99;74.08;95213.19;5010252;28;20038;-62
2021/04/12 03:44:07;;;;;;;7.65;7.05;;;;;;;8.99;74.63;95210.53;5009690;28;20554;-63
2021/04/12 03:46:45;;;;;;;6.97;6.32;;;;;;;8.44;77.44;95219.06;5009976;28;20447;-64
2021/04/12 03:49:13;;;;;;;7.00;6.40;;;;;;;8.18;79.24;95229.22;5009323;28;20080;-63
2021/04/12 03:52:12;;;;;;;8.65;7.95;;;;;;;8.20;80.90;95229.75;5009154;28;20518;-63
2021/04/12 03:54:49;;;;;;;10.90;9.80;;;;;;;8.23;81.90;95231.81;5009363;28;20050;-62
2021/04/12 03:58:04;;;;;;;11.02;9.05;;;;;;;7.62;83.34;95227.28;5009237;28;20053;-63
2021/04/12 04:00:44;;;;;;;6.00;5.50;;;;;;;7.42;82.50;95238.09;4989798;28;20053;-62
2021/04/12 04:03:27;;;;;;;6.07;5.55;;;;;;;7.47;83.83;95241.50;5009117;28;20041;-61
2021/04/12 04:06:14;;;;;;;7.72;5.38;;;;;;;7.33;84.85;95243.22;5008783;28;20034;-62
2021/04/12 04:08:55;;;;;;;7.40;6.45;;;;;;;7.48;84.89;95258.16;5008850;28;20107;-62
2021/04/12 04:11:41;;;;;;;8.73;7.53;;;;;;;7.26;86.04;95251.47;5008215;28;20042;-63
2021/04/12 04:14:15;;;;;;;9.77;7.72;;;;;;;7.43;87.89;95261.66;5009170;28;20022;-63
2021/04/12 04:16:50;;;;;;;13.38;9.90;;;;;;;7.24;88.14;95269.50;5009879;28;20033;-61
2021/04/12 04:19:38;;;;;;;11.05;8.50;;;;;;;6.89;89.96;95270.59;5009221;28;20042;-62
2021/04/12 04:22:10;;;;;;;14.30;10.43;;;;;;;6.73;92.18;95285.78;5009048;28;20709;-61
2021/04/12 04:24:44;;;;;;;;;;;;;;;6.75;93.61;95288.16;5009599;28;20451;-61
2021/04/12 04:28:06;;;;;;;17.05;10.20;;;;;;;6.65;94.24;95306.72;5008889;28;20012;-62
2021/04/12 04:31:10;;;;;;;26.35;13.48;;;;;;;6.47;94.14;95301.03;4986863;28;20104;-63
2021/04/12 04:33:41;;;;;;;17.30;11.40;;;;;;;6.40;93.61;95308.47;4986807;28;20046;-63
2021/04/12 04:36:30;;;;;;;13.15;9.90;;;;;;;6.42;93.63;95303.69;5006576;28;20053;-62
2021/04/12 04:39:28;;;;;;;22.88;12.90;;;;;;;6.62;93.54;95318.66;5008483;28;20062;-62
2021/04/12 04:42:26;;;;;;;16.75;10.13;;;;;;;6.25;93.11;95308.56;5023668;28;20034;-63
2021/04/12 04:45:30;;;;;;;11.73;8.90;;;;;;;6.26;94.82;95339.19;5004674;28;20100;-62
2021/04/12 04:48:23;;;;;;;12.18;6.63;;;;;;;5.69;96.35;95357.03;4993544;28;20049;-63
2021/04/12 04:51:01;;;;;;;8.45;5.70;;;;;;;5.46;96.14;95357.59;5008519;28;20050;-64
2021/04/12 04:53:50;;;;;;;8.40;5.97;;;;;;;5.26;95.70;95373.44;5008429;28;20041;-62
2021/04/12 04:56:35;;;;;;;14.13;8.98;;;;;;;5.54;96.21;95361.53;5008671;28;20668;-63
2021/04/12 04:59:19;;;;;;;15.30;9.32;;;;;;;5.61;95.44;95354.94;5023300;28;20038;-62
2021/04/12 05:02:09;;;;;;;11.88;8.88;;;;;;;5.58;95.62;95366.03;5010335;28;20053;-62
2021/04/12 05:05:22;;;;;;;10.75;8.30;;;;;;;5.15;96.55;95376.06;5008823;28;20554;-62
2021/04/12 05:08:00;;;;;;;14.18;8.85;;;;;;;4.89;97.75;95398.97;5007322;28;20050;-63
2021/04/12 05:10:58;;;;;;;20.90;10.60;;;;;;;5.15;96.41;95405.06;5014795;23;20149;-61
2021/04/12 05:13:44;;;;;;;14.05;6.78;;;;;;;4.25;98.02;95396.69;4988854;28;20132;-61
2021/04/12 05:16:43;;;;;;;5.38;3.75;;;;;;;4.00;99.17;95433.44;5003689;28;20105;-61
2021/04/12 05:19:08;;;;;;;9.57;6.32;;;;;;;3.79;99.54;95448.31;5003590;28;20065;-62
2021/04/12 05:21:40;;;;;;;24.88;10.05;;;;;;;4.08;99.12;95454.78;4988413;28;20062;-62
2021/04/12 05:24:11;;;;;;;12.95;6.35;;;;;;;3.77;99.23;95466.16;4992127;28;20031;-63
2021/04/12 05:26:56;;;;;;;8.90;5.50;;;;;;;3.60;99.49;95474.19;4992698;28;20126;-68
2021/04/12 05:29:59;;;;;;;9.60;5.75;;;;;;;3.39;99.49;95475.88;4992551;28;20046;-64
2021/04/12 05:32:30;;;;;;;;;;;;;;;3.24;98.89;95491.50;4991335;28;20122;-62
2021/04/12 05:35:20;;;;;;;4.80;3.42;;;;;;;2.73;100.00;95483.09;5002466;28;19913;-63
2021/04/12 05:38:10;;;;;;;8.70;6.15;;;;;;;2.95;100.00;95483.06;5012150;28;20133;-65
2021/04/12 05:41:02;;;;;;;5.30;1.98;;;;;;;2.48;99.78;95502.75;5027354;28;20038;-63
2021/04/12 05:43:58;;;;;;;11.77;7.03;;;;;;;2.72;99.61;95515.66;5011904;28;20617;-61
2021/04/12 05:46:41;;;;;;;7.50;2.35;;;;;;;2.06;99.40;95528.72;5012123;28;20046;-64
2021/04/12 05:49:26;;;;;;;6.70;3.38;;;;;;;1.65;100.00;95537.78;5011436;28;20038;-64
2021/04/12 05:52:26;;;;;;;9.02;6.05;;;;;;;1.56;100.00;95540.00;5011381;28;20054;-64
2021/04/12 05:55:33;;;;;;;18.85;7.13;;;;;;;1.33;100.00;95472.75;5011465;28;20065;-64
2021/04/12 05:58:56;;;;;;;11.45;6.75;;;;;;;1.78;100.00;95572.34;5026041;28;20047;-67
2021/04/12 06:01:39;;;;;;;8.30;4.97;;;;;;;1.66;99.96;95570.84;5006589;28;20044;-65
2021/04/12 06:04:37;;;;;;;9.80;5.53;;;;;;;1.36;99.90;95532.56;5008782;28;20109;-64
2021/04/12 06:07:08;;;;;;;11.82;6.72;;;;;;;1.73;99.71;95576.72;5009900;28;20057;-62
2021/04/12 06:10:06;;;;;;;9.27;5.17;;;;;;;1.69;100.00;95579.03;5011290;28;20133;-64
2021/04/12 06:12:54;;;;;;;13.73;6.68;;;;;;;1.81;100.00;95585.00;5006328;28;20101;-63
2021/04/12 06:15:31;;;;;;;12.32;6.95;;;;;;;1.84;99.19;95596.81;5010653;28;20053;-62
2021/04/12 06:18:28;;;;;;;8.23;5.75;;;;;;;1.69;99.36;95593.94;5010154;28;20069;-62
2021/04/12 06:21:21;;;;;;;10.55;6.55;;;;;;;1.53;98.41;95601.53;5010998;28;20050;-63
2021/04/12 06:24:18;;;;;;;9.65;5.45;;;;;;;1.79;97.14;95597.56;5010790;28;20042;-60
2021/04/12 06:27:10;;;;;;;13.88;5.90;;;;;;;1.25;98.24;95562.25;5026112;28;20676;-62
2021/04/12 06:29:41;;;;;;;8.27;5.30;;;;;;;1.25;98.54;95615.47;5011032;28;20439;-64
2021/04/12 06:32:25;;;;;;;10.15;5.63;;;;;;;1.30;99.76;95618.19;5010727;28;20560;-64
2021/04/12 06:34:59;;;;;;;2.60;1.75;;;;;;;1.16;98.93;95632.56;5011792;28;20057;-65
2021/04/12 06:38:02;;;;;;;15.32;6.13;;;;;;;1.09;99.65;95631.91;5011107;28;20076;-64
2021/04/12 06:40:52;;;;;;;2.03;1.70;;;;;;;0.78;100.00;95673.19;5011353;28;20472;-64
2021/04/12 06:43:45;;;;;;;3.72;2.72;;;;;;;0.92;100.00;95683.41;5010159;28;20131;-62
2021/04/12 06:46:19;;;;;;;16.00;7.78;;;;;;;1.09;100.00;95691.38;5011244;28;20446;-64
2021/04/12 06:49:19;;;;;;;13.75;6.97;;;;;;;0.70;100.00;95633.47;5011386;28;20510;-65
2021/04/12 06:52:13;;;;;;;17.63;8.65;;;;;;;1.25;99.52;95683.59;5011087;28;20133;-66
2021/04/12 06:54:46;;;;;;;9.52;6.00;;;;;;;1.06;99.65;95658.56;5011469;28;20048;-64
2021/04/12 06:57:23;;;;;;;17.80;8.40;;;;;;;1.09;100.00;95699.25;5011125;28;20145;-62
2021/04/12 07:00:13;;;;;;;21.40;8.57;;;;;;;1.02;100.00;95694.94;5011088;28;20120;-61
2021/04/12 07:02:42;;;;;;;16.83;8.60;;;;;;;1.20;100.00;95699.22;5010906;28;20038;-61
2021/04/12 07:05:26;;;;;;;9.20;5.55;;;;;;;0.94;100.00;95724.09;5011285;28;20045;-62
2021/04/12 07:07:54;;;;;;;39.50;13.18;;;;;;;0.72;99.25;95615.72;5012878;28;20030;-61
2021/04/12 07:10:48;;;;;;;23.08;10.10;;;;;;;1.14;99.56;95736.81;5011333;28;20046;-61
2021/04/12 07:13:22;;;;;;;19.00;8.43;;;;;;;0.81;99.53;95677.16;5026081;28;20037;-61
2021/04/12 07:16:15;;;;;;;16.23;8.50;;;;;;;0.92;99.88;95754.13;5026566;28;20069;-61
2021/04/12 07:18:49;;;;;;;13.32;7.28;;;;;;;1.02;100.00;95752.56;5011086;28;20065;-61
2021/04/12 07:21:42;;;;;;;23.98;11.60;;;;;;;1.03;100.00;95764.63;5025701;28;20436;-61
2021/04/12 07:24:39;;;;;;;17.42;7.47;;;;;;;1.04;100.00;95776.69;5010476;28;20052;-61
2021/04/12 07:27:40;;;;;;;22.55;10.60;;;;;;;1.09;99.41;95786.50;5010652;28;20100;-62
2021/04/12 07:30:24;;;;;;;19.13;8.88;;;;;;;1.13;100.00;95792.88;4997425;28;20096;-61
2021/04/12 07:33:18;;;;;;;19.05;8.93;;;;;;;1.21;99.68;95807.44;5010441;28;20577;-63
2021/04/12 07:36:11;;;;;;;20.73;9.93;;;;;;;1.19;100.00;95812.13;5010381;28;20038;-60
2021/04/12 07:39:00;;;;;;;9.52;6.03;;;;;;;0.96;100.00;95818.94;5009192;28;20073;-61
2021/04/12 07:41:48;;;;;;;21.30;9.07;;;;;;;1.32;99.38;95821.56;5010537;28;20395;-61
2021/04/12 07:44:38;;;;;;;25.20;11.18;;;;;;;1.29;99.82;95823.63;5010405;28;20030;-61
2021/04/12 07:47:53;;;;;;;11.20;5.22;;;;;;;1.04;100.00;95830.91;5010106;28;20480;-61
2021/04/12 07:53:51;;;;;;;28.20;12.23;;;;;;;1.32;100.00;95834.69;5009943;28;20125;-61
2021/04/12 07:56:54;;;;;;;24.23;9.63;;;;;;;1.24;99.72;95849.72;5010202;28;20369;-61
2021/04/12 07:59:38;;;;;;;13.82;6.82;;;;;;;1.19;100.00;95849.63;5009958;28;20041;-61
2021/04/12 08:02:28;;;;;;;14.65;7.47;;;;;;;0.05;100.00;95673.56;5009584;28;20030;-61
2021/04/12 08:05:15;;;;;;;35.67;14.00;;;;;;;1.45;99.53;95853.59;5012020;28;20034;-61
2021/04/12 08:07:40;;;;;;;6.47;4.32;;;;;;;1.61;97.97;95848.69;5025088;28;20050;-61
2021/04/12 08:10:25;;;;;;;26.73;11.18;;;;;;;1.47;98.55;95862.03;5009664;28;20045;-62
2021/04/12 08:13:38;;;;;;;20.92;10.30;;;;;;;1.72;98.62;95864.41;5009592;28;20511;-63
2021/04/12 08:16:36;;;;;;;29.55;12.57;;;;;;;-0.17;98.12;95583.63;4978432;28;20041;-62
2021/04/12 08:19:32;;;;;;;21.40;9.90;;;;;;;0.13;97.58;95654.16;5008206;28;20069;-61
2021/04/12 08:22:16;;;;;;;20.70;9.50;;;;;;;1.72;98.28;95874.91;5009375;28;20369;-61
2021/04/12 08:25:03;;;;;;;25.15;8.68;;;;;;;1.85;98.11;95876.50;5009543;28;20042;-61
2021/04/12 08:27:53;;;;;;;12.07;4.15;;;;;;;1.61;97.98;95891.44;5009491;28;20137;-60
2021/04/12 08:30:40;;;;;;;11.07;7.18;;;;;;;1.74;98.15;95893.84;5024566;28;20442;-61
2021/04/12 08:33:33;;;;;;;20.88;11.85;;;;;;;2.27;96.54;95903.31;5007575;28;20133;-62
2021/04/12 08:36:17;;;;;;;;;;;;;;;1.97;97.14;95900.88;5010071;28;20387;-60
2021/04/12 08:39:17;;;;;;;18.48;9.90;;;;;;;1.92;97.29;95916.50;5009205;28;19921;-61
2021/04/12 08:42:10;;;;;;;25.73;12.45;;;;;;;0.94;96.44;95739.00;5007494;28;20403;-62
2021/04/12 08:44:54;;;;;;;;;;;;;;;2.14;97.03;95908.03;5009327;28;20049;-60
2021/04/12 08:47:38;;;;;;;15.23;9.52;;;;;;;2.52;95.16;95916.16;5009045;28;19917;-62
2021/04/12 08:50:16;;;;;;;18.35;11.52;;;;;;;2.47;95.77;95921.31;5008807;28;20033;-61
2021/04/12 08:52:44;;;;;;;10.23;7.60;;;;;;;2.24;94.38;95931.84;5011262;28;20034;-61
2021/04/12 08:55:37;;;;;;;11.27;8.52;;;;;;;2.02;96.21;95932.47;5009088;28;20191;-62
2021/04/12 08:58:39;;;;;;;16.15;10.20;;;;;;;2.28;95.79;95933.00;5010617;28;20545;-62
2021/04/12 09:01:19;;;;;;;14.88;10.95;;;;;;;2.17;95.63;95949.56;5013905;28;20034;-64
2021/04/12 09:04:23;;;;;;;10.95;6.97;;;;;;;1.98;96.75;95949.69;5014108;28;20046;-62
2021/04/12 09:07:10;;;;;;;12.43;6.57;;;;;;;2.04;95.11;95946.13;5013919;28;20046;-64
2021/04/12 09:09:54;;;;;;;6.50;5.32;;;;;;;1.96;95.13;95957.00;5013088;28;20045;-63
2021/04/12 09:12:47;;;;;;;17.65;11.07;;;;;;;2.15;95.04;95968.19;5012874;28;20046;-63
2021/04/12 09:15:44;;;;;;;;;;;;;;;2.23;95.53;95965.19;5013526;28;20125;-62
2021/04/12 09:18:41;;;;;;;11.60;7.50;;;;;;;2.26;94.77;95969.97;4979851;28;19921;-61
2021/04/12 09:21:37;;;;;;;9.68;6.95;;;;;;;2.21;94.62;95984.81;5012365;28;20043;-63
2021/04/12 09:24:24;;;;;;;9.35;5.90;;;;;;;2.45;92.38;95978.47;5028469;28;20565;-64
2021/04/12 09:27:07;;;;;;;6.55;2.75;;;;;;;1.94;94.07;95987.09;5012826;28;20129;-63
2021/04/12 09:29:39;;;;;;;7.22;5.72;;;;;;;2.42;94.63;95989.47;5028307;28;20061;-61
2021/04/12 09:32:23;;;;;;;3.40;3.10;;;;;;;1.94;94.14;96000.22;5012944;28;20109;-62
2021/04/12 09:35:03;;;;;;;12.63;9.70;;;;;;;2.74;94.52;95992.47;5014852;28;20040;-63
2021/04/12 09:38:08;;;;;;;18.02;12.30;;;;;;;3.26;91.92;95994.19;5011724;28;20069;-62
2021/04/12 09:40:49;;;;;;;8.05;6.68;;;;;;;1.49;91.84;95844.25;5028360;28;20038;-63
2021/04/12 09:43:45;;;;;;;6.28;4.20;;;;;;;2.24;91.39;96013.22;5012148;28;20049;-62
2021/04/12 09:46:32;;;;;;;9.90;6.82;;;;;;;2.40;92.92;96024.84;5012827;28;20045;-61
2021/04/12 09:49:18;;;;;;;10.07;8.45;;;;;;;2.59;93.03;96024.47;5012285;28;20056;-63
2021/04/12 09:52:21;;;;;;;9.95;6.35;;;;;;;3.07;91.60;96020.72;5012137;28;20060;-63
2021/04/12 09:55:14;;;;;;;8.93;7.43;;;;;;;3.24;90.79;96022.56;5012170;28;20120;-62
2021/04/12 09:58:04;;;;;;;9.43;7.60;;;;;;;3.86;89.52;96019.94;5012125;28;20107;-63
2021/04/12 10:00:40;;;;;;;15.48;8.40;;;;;;;4.45;86.65;96022.88;5012126;28;20089;-63
2021/04/12 10:03:32;;;;;;;9.32;7.20;;;;;;;3.99;86.03;96018.78;5012196;28;20030;-62
2021/04/12 10:06:23;;;;;;;11.25;8.23;;;;;;;3.70;86.06;96018.91;5012435;28;20034;-62
2021/04/12 10:09:11;;;;;;;10.15;7.35;;;;;;;3.53;89.28;96018.06;5010609;28;20472;-62
2021/04/12 10:11:48;;;;;;;5.28;4.82;;;;;;;2.72;89.08;96006.88;5000990;28;20404;-61
2021/04/12 10:14:27;;;;;;;5.75;5.25;;;;;;;2.12;89.65;95892.50;5012033;28;20057;-63
2021/04/12 10:17:16;;;;;;;5.45;4.88;;;;;;;2.13;90.10;95846.88;5013897;28;20018;-62
2021/04/12 10:19:47;;;;;;;6.18;5.65;;;;;;;3.13;89.54;96034.75;5027339;28;20495;-63
2021/04/12 10:22:15;;;;;;;5.78;4.95;;;;;;;3.58;87.20;96026.03;5010924;28;20522;-62
2021/04/12 10:24:52;;;;;;;5.63;4.70;;;;;;;3.50;87.38;96029.06;5012329;28;20042;-62
2021/04/12 10:27:26;;;;;;;6.15;5.55;;;;;;;3.90;86.88;96035.00;5011921;28;20046;-63
2021/04/12 10:30:11;;;;;;;5.57;3.90;;;;;;;3.19;88.11;96051.41;5027124;28;20046;-63
2021/04/12 10:32:51;;;;;;;5.22;4.78;;;;;;;2.93;89.24;96037.78;5011686;28;20045;-62
2021/04/12 10:35:32;;;;;;;5.47;4.10;;;;;;;2.61;90.35;96029.53;5012052;28;20061;-62
2021/04/12 10:38:16;;;;;;;6.00;5.45;;;;;;;3.53;89.51;96045.19;5013310;28;20053;-62
2021/04/12 10:41:15;;;;;;;5.40;4.90;;;;;;;3.41;89.01;96047.06;5012374;28;20543;-64
2021/04/12 10:43:54;;;;;;;5.03;4.45;;;;;;;3.11;89.23;96049.94;5012148;28;20065;-63
2021/04/12 10:46:30;;;;;;;6.68;4.97;;;;;;;2.93;89.81;96050.13;5011755;28;20085;-63
2021/04/12 10:49:12;;;;;;;4.85;4.45;;;;;;;3.07;89.08;96023.34;5011102;28;20052;-63
2021/04/12 10:52:10;;;;;;;6.93;4.53;;;;;;;3.22;88.12;96037.75;5010694;28;20092;-64
2021/04/12 10:55:05;;;;;;;4.85;4.38;;;;;;;3.01;89.74;96003.22;5011270;28;20065;-62
2021/04/12 10:57:36;;;;;;;5.35;4.68;;;;;;;3.69;87.62;96067.28;5011286;28;20041;-62
2021/04/12 11:00:20;;;;;;;6.53;4.60;;;;;;;2.97;88.93;96025.78;5010979;28;20041;-63
2021/04/12 11:03:07;;;;;;;5.53;5.00;;;;;;;3.91;88.19;96065.56;5011179;28;20036;-62
2021/04/12 11:05:34;;;;;;;5.57;3.13;;;;;;;3.44;86.93;96070.28;5011202;28;20061;-63
2021/04/12 11:08:26;;;;;;;6.25;5.72;;;;;;;3.50;88.88;96021.19;5010827;28;20095;-63
2021/04/12 11:11:09;;;;;;;5.30;4.72;;;;;;;2.46;90.23;96016.06;5013193;28;20080;-63
2021/04/12 11:13:41;;;;;;;7.05;5.88;;;;;;;2.31;91.24;96063.81;5011316;28;20042;-64
2021/04/12 11:16:21;;;;;;;9.75;7.22;;;;;;;1.91;92.19;96051.34;5026133;28;20029;-63
2021/04/12 11:18:59;;;;;;;13.48;8.77;;;;;;;2.08;92.96;96083.75;5022892;23;20050;-61
2021/04/12 11:21:35;;;;;;;27.77;12.00;;;;;;;2.27;93.16;96054.78;5024969;28;20050;-62
2021/04/12 11:24:28;;;;;;;28.40;12.55;;;;;;;2.09;92.53;95988.25;5010960;28;20037;-61
2021/04/12 11:27:31;;;;;;;27.45;14.25;;;;;;;3.27;92.77;96085.19;5010787;28;20070;-60
2021/04/12 11:30:15;;;;;;;26.30;12.98;;;;;;;3.59;91.13;96083.69;5025910;28;20403;-61
2021/04/12 11:32:50;;;;;;;26.42;14.57;;;;;;;4.40;90.88;96091.28;5010613;28;20029;-61
2021/04/12 11:35:42;;;;;;;24.85;12.43;;;;;;;4.63;88.11;96090.31;5010916;28;20120;-62
2021/04/12 11:38:25;;;;;;;15.30;9.73;;;;;;;5.04;87.02;96094.28;4999745;28;20419;-63
2021/04/12 11:41:15;;;;;;;10.40;7.85;;;;;;;3.88;87.30;96060.75;5027725;28;20718;-62
2021/04/12 11:43:45;;;;;;;9.60;8.70;;;;;;;4.00;86.76;96065.97;5026009;28;20033;-62
2021/04/12 11:46:37;;;;;;;11.07;9.35;;;;;;;4.10;86.01;96067.97;5010702;28;20038;-61
2021/04/12 11:49:17;;;;;;;11.55;8.80;;;;;;;3.49;85.33;96088.78;5010007;28;20091;-62
2021/04/12 11:52:11;;;;;;;7.18;6.47;;;;;;;2.98;89.03;96114.09;5008533;28;20129;-60
2021/04/12 11:54:44;;;;;;;13.85;9.20;;;;;;;2.75;91.29;96119.38;5009009;28;20041;-65
2021/04/12 11:57:15;;;;;;;9.13;8.00;;;;;;;2.94;90.93;96118.19;5008754;28;20053;-60
2021/04/12 12:00:07;;;;;;;11.87;10.43;;;;;;;3.31;90.91;96091.59;5010488;28;20057;-59
2021/04/12 12:03:05;;;;;;;14.85;10.85;;;;;;;3.60;89.38;96108.97;5010159;28;20092;-60
2021/04/12 12:05:36;;;;;;;10.02;8.70;;;;;;;3.07;90.67;96133.72;5009058;28;20033;-59
2021/04/12 12:08:08;;;;;;;14.15;10.88;;;;;;;2.88;91.61;96076.28;5009697;28;20069;-60
2021/04/12 12:10:50;;;;;;;8.95;7.45;;;;;;;2.31;92.34;96077.72;5012332;28;20498;-61
2021/04/12 12:13:38;;;;;;;13.88;9.40;;;;;;;3.24;91.45;96141.69;5010129;28;20054;-60
2021/04/12 12:16:28;;;;;;;9.73;8.75;;;;;;;3.38;91.85;96134.34;5010241;28;20069;-59
2021/04/12 12:19:15;;;;;;;13.35;10.60;;;;;;;3.27;90.79;96066.78;5009728;28;20132;-60
2021/04/12 12:21:49;;;;;;;14.35;10.25;;;;;;;3.62;90.02;96140.28;5009551;28;20042;-60
2021/04/12 12:24:23;;;;;;;12.82;10.38;;;;;;;3.09;89.99;96094.06;5008544;28;20050;-59
2021/04/12 12:27:01;;;;;;;8.48;7.30;;;;;;;2.40;92.26;96117.53;5008503;28;20114;-61
2021/04/12 12:29:31;;;;;;;9.90;7.18;;;;;;;2.45;92.56;96107.16;5009830;28;20041;-61
2021/04/12 12:32:15;;;;;;;12.15;8.38;;;;;;;2.62;93.61;96151.13;5010967;28;20056;-60
2021/04/12 12:34:56;;;;;;;8.60;7.30;;;;;;;2.90;92.19;96147.81;5025175;28;20078;-60
2021/04/12 12:37:43;;;;;;;8.88;8.07;;;;;;;2.97;92.51;96159.81;5009525;28;20099;-60
2021/04/12 12:40:23;;;;;;;6.22;5.63;;;;;;;2.89;89.41;96154.88;5008312;28;20050;-61
2021/04/12 12:42:53;;;;;;;7.32;6.68;;;;;;;2.70;90.56;96099.03;5008348;28;20034;-60
2021/04/12 12:45:21;;;;;;;7.88;7.15;;;;;;;3.42;90.94;96160.94;5009613;28;20042;-59
2021/04/12 12:47:50;;;;;;;7.22;6.57;;;;;;;3.34;89.24;96154.25;5008936;28;20181;-60
2021/04/12 12:50:29;;;;;;;7.05;6.30;;;;;;;3.02;89.93;96141.50;5009039;28;20037;-59
2021/04/12 12:53:10;;;;;;;7.68;6.90;;;;;;;2.74;90.72;96041.59;5011360;28;20030;-60
2021/04/12 12:55:43;;;;;;;6.00;5.50;;;;;;;3.64;88.41;96149.56;5025221;28;20049;-60
2021/04/12 12:58:11;;;;;;;5.97;5.47;;;;;;;3.46;89.08;96089.25;5009259;28;20096;-60
2021/04/12 13:00:43;;;;;;;7.20;5.15;;;;;;;3.24;87.88;96164.56;5009359;28;20041;-59
2021/04/12 13:03:15;;;;;;;3.95;3.45;;;;;;;3.06;85.46;96155.75;5007612;28;20065;-58
2021/04/12 13:05:43;;;;;;;5.25;4.57;;;;;;;3.60;86.72;96148.44;5009324;28;20095;-59
2021/04/12 13:08:12;;;;;;;6.05;5.45;;;;;;;3.64;87.24;96146.94;5007701;28;20030;-60